Time;durP1;ratioP1;P1;durP2;ratioP2;P2;SDS_P1;SDS_P2;PMS_P1;PMS_P2;Temp;Humidity;BMP_temperature;BMP_pressure;BME280_temperature;BME280_humidity;BME280_pressure;Samples;Min_cycle;Max_cycle;Signal;HPM_P1;HPM_P2
2022/11/19 00:01:36;;;;;;;21.80;8.93;;;-2.40;99.90;;;;;;4374657;28;659556;-63
2022/11/19 00:04:23;;;;;;;20.47;8.73;;;-2.40;99.90;;;;;;4394936;28;659637;-63
2022/11/19 00:07:10;;;;;;;17.90;8.10;;;-2.60;99.90;;;;;;4376304;28;659920;-64
2022/11/19 00:09:59;;;;;;;15.70;8.27;;;-2.50;99.90;;;;;;4394884;28;660999;-63
2022/11/19 00:12:54;;;;;;;18.50;8.10;;;-2.50;99.90;;;;;;4376626;28;660565;-63
2022/11/19 00:15:41;;;;;;;16.97;8.10;;;-2.50;99.90;;;;;;4353918;28;659788;-63
2022/11/19 00:18:28;;;;;;;18.33;8.35;;;-2.40;99.90;;;;;;4395304;28;660640;-63
2022/11/19 00:21:15;;;;;;;16.07;8.50;;;-2.40;99.90;;;;;;4376312;28;659519;-63
2022/11/19 00:24:02;;;;;;;15.80;8.30;;;-2.40;99.90;;;;;;4395123;28;660932;-63
2022/11/19 00:26:51;;;;;;;20.77;7.63;;;-2.40;99.90;;;;;;4392252;28;659701;-64
2022/11/19 00:29:38;;;;;;;13.57;7.30;;;-2.40;99.90;;;;;;4395111;28;659690;-62
2022/11/19 00:32:25;;;;;;;18.80;8.90;;;-2.40;99.90;;;;;;4376124;28;659670;-64
2022/11/19 00:35:13;;;;;;;15.83;7.57;;;-2.50;99.90;;;;;;4395099;28;661270;-63
2022/11/19 00:38:00;;;;;;;16.08;7.90;;;-2.50;99.90;;;;;;4381159;28;659647;-65
2022/11/19 00:40:47;;;;;;;16.38;7.90;;;-2.50;99.90;;;;;;4399375;28;660712;-63
2022/11/19 00:43:48;;;;;;;18.77;8.30;;;-2.40;99.90;;;;;;4406731;28;659972;-63
2022/11/19 00:46:35;;;;;;;14.70;7.47;;;-2.40;99.90;;;;;;4369624;28;659531;-64
2022/11/19 00:49:22;;;;;;;18.30;8.70;;;-2.50;99.90;;;;;;4413874;28;661329;-63
2022/11/19 00:52:10;;;;;;;17.63;8.27;;;-2.50;99.90;;;;;;4413611;28;660709;-65
2022/11/19 00:54:57;;;;;;;17.27;7.55;;;-2.60;99.90;;;;;;4418862;28;659514;-63
2022/11/19 00:57:44;;;;;;;13.33;7.37;;;-2.60;99.90;;;;;;4414337;28;659479;-63
2022/11/19 01:00:33;;;;;;;15.97;7.90;;;-2.50;99.90;;;;;;4485989;28;659699;-63
2022/11/19 01:03:20;;;;;;;17.83;7.38;;;-2.50;99.90;;;;;;4781998;28;537319;-65
2022/11/19 01:06:08;;;;;;;18.60;8.27;;;-2.50;99.90;;;;;;4412899;28;659874;-63
2022/11/19 01:08:55;;;;;;;17.47;8.10;;;-2.50;99.90;;;;;;4407013;28;659873;-64
2022/11/19 01:11:42;;;;;;;15.48;6.88;;;-2.50;99.90;;;;;;4418533;28;659535;-63
2022/11/19 01:14:29;;;;;;;16.63;7.93;;;-2.60;99.90;;;;;;4414349;28;659904;-62
2022/11/19 01:17:18;;;;;;;16.50;8.00;;;-2.60;99.90;;;;;;4391988;28;661124;-63
2022/11/19 01:20:06;;;;;;;17.67;8.13;;;-2.60;99.90;;;;;;4406053;28;659755;-64
2022/11/19 01:22:53;;;;;;;16.40;8.00;;;-2.60;99.90;;;;;;4414017;28;660266;-62
2022/11/19 01:25:40;;;;;;;18.90;7.63;;;-2.70;99.90;;;;;;4394983;28;659701;-64
2022/11/19 01:28:27;;;;;;;15.20;7.67;;;-2.60;99.90;;;;;;4418065;28;660832;-62
2022/11/19 01:31:15;;;;;;;16.43;7.83;;;-2.60;99.90;;;;;;4413799;28;659670;-63
2022/11/19 01:34:04;;;;;;;14.63;7.23;;;-2.50;99.90;;;;;;4384799;28;660336;-63
2022/11/19 01:36:51;;;;;;;15.40;7.90;;;-2.60;99.90;;;;;;4393096;28;659708;-62
2022/11/19 01:39:38;;;;;;;17.03;7.67;;;-2.60;99.90;;;;;;4417507;28;660870;-63
2022/11/19 01:45:29;;;;;;;17.00;7.63;;;-2.50;99.90;;;;;;4395362;28;659354;-63
2022/11/19 01:48:18;;;;;;;16.67;7.50;;;-2.60;99.90;;;;;;4394895;28;659531;-63
2022/11/19 01:51:09;;;;;;;17.27;7.50;;;-2.60;99.90;;;;;;4394345;28;659732;-64
2022/11/19 01:53:57;;;;;;;15.10;7.13;;;-2.70;99.90;;;;;;4391466;28;659835;-63
2022/11/19 01:56:44;;;;;;;15.52;7.85;;;-2.60;99.90;;;;;;4413398;28;659376;-62
2022/11/19 01:59:31;;;;;;;14.33;7.73;;;-2.70;99.90;;;;;;4377140;28;659873;-62
2022/11/19 02:02:21;;;;;;;14.90;7.03;;;-2.70;99.90;;;;;;4395852;28;661320;-63
2022/11/19 02:05:09;;;;;;;16.85;7.53;;;-2.70;99.90;;;;;;4373273;28;660448;-62
2022/11/19 02:07:58;;;;;;;16.48;7.72;;;-2.70;99.90;;;;;;4377132;28;659427;-63
2022/11/19 02:10:48;;;;;;;16.70;8.20;;;-2.80;99.90;;;;;;4378910;28;660430;-64
2022/11/19 02:13:37;;;;;;;17.30;8.07;;;-2.80;99.90;;;;;;4376976;28;659940;-63
2022/11/19 02:16:27;;;;;;;14.40;7.30;;;-2.90;99.90;;;;;;4393421;28;659420;-65
2022/11/19 02:19:23;;;;;;;18.43;8.43;;;-2.90;99.90;;;;;;4395544;28;659783;-63
2022/11/19 02:22:16;;;;;;;14.67;7.60;;;-2.90;99.90;;;;;;4350155;28;659950;-64
2022/11/19 02:25:08;;;;;;;14.97;7.73;;;-3.00;99.90;;;;;;4373080;28;659846;-62
2022/11/19 02:28:01;;;;;;;17.97;8.50;;;-3.00;99.90;;;;;;4354426;28;659913;-64
2022/11/19 02:30:50;;;;;;;15.77;7.57;;;-2.90;99.90;;;;;;4372945;28;660972;-62
2022/11/19 02:33:41;;;;;;;20.40;8.90;;;-2.90;99.90;;;;;;4372850;28;661133;-63
2022/11/19 02:36:31;;;;;;;20.42;8.93;;;-2.90;99.90;;;;;;4369810;28;659954;-62
2022/11/19 02:39:19;;;;;;;16.60;8.20;;;-2.90;99.90;;;;;;4372687;28;660653;-62
2022/11/19 02:42:08;;;;;;;19.60;9.17;;;-2.90;99.90;;;;;;4376355;28;659643;-62
2022/11/19 02:45:01;;;;;;;21.90;9.70;;;-2.90;99.90;;;;;;4376339;28;659697;-63
2022/11/19 02:47:50;;;;;;;18.73;9.20;;;-2.90;99.90;;;;;;4372175;28;660633;-63
2022/11/19 02:50:39;;;;;;;20.00;9.90;;;-3.00;99.90;;;;;;4372435;28;660496;-63
2022/11/19 02:53:27;;;;;;;18.77;8.90;;;-3.10;99.90;;;;;;4372311;28;660718;-63
2022/11/19 02:56:16;;;;;;;20.40;10.37;;;-3.20;99.90;;;;;;4395216;28;660189;-62
2022/11/19 03:05:15;;;;;;;24.63;10.30;;;-3.20;99.90;;;;;;4388576;28;661420;-63
2022/11/19 03:08:02;;;;;;;22.33;9.67;;;-3.20;99.90;;;;;;4391824;28;662280;-63
2022/11/19 03:10:55;;;;;;;20.13;9.63;;;-3.20;99.90;;;;;;4411020;28;659586;-63
2022/11/19 03:16:54;;;;;;;21.43;9.63;;;-3.20;99.90;;;;;;4365496;28;661474;-63
2022/11/19 03:19:44;;;;;;;20.30;10.03;;;-3.20;99.90;;;;;;4392364;28;659651;-63
2022/11/19 03:22:34;;;;;;;23.13;10.33;;;-3.20;99.90;;;;;;4391258;28;660755;-62
2022/11/19 03:25:24;;;;;;;23.67;10.10;;;-3.20;99.90;;;;;;4386940;28;661713;-62
2022/11/19 03:28:12;;;;;;;21.50;9.53;;;-3.10;99.90;;;;;;4386846;28;661930;-63
2022/11/19 03:31:00;;;;;;;18.57;9.60;;;-3.10;99.90;;;;;;4400856;28;660175;-64
2022/11/19 03:33:48;;;;;;;19.90;9.82;;;-3.20;99.90;;;;;;4415706;28;659572;-63
2022/11/19 03:36:37;;;;;;;19.53;9.40;;;-3.20;99.90;;;;;;4392744;28;659262;-63
2022/11/19 03:39:26;;;;;;;20.77;9.57;;;-3.20;99.90;;;;;;4412289;28;660130;-63
2022/11/19 03:42:13;;;;;;;19.17;9.77;;;-3.20;99.90;;;;;;4388921;28;660630;-62
2022/11/19 03:45:02;;;;;;;20.73;10.13;;;-3.20;99.90;;;;;;4401529;28;660013;-64
2022/11/19 03:47:50;;;;;;;19.50;9.73;;;-3.20;99.90;;;;;;4390426;28;661116;-63
2022/11/19 03:50:40;;;;;;;23.07;10.10;;;-3.20;99.90;;;;;;4411847;28;660932;-63
2022/11/19 03:53:27;;;;;;;26.53;10.30;;;-3.30;99.90;;;;;;4387379;28;661588;-63
2022/11/19 03:56:18;;;;;;;27.77;11.00;;;-3.30;99.90;;;;;;4409775;28;661037;-65
2022/11/19 03:59:05;;;;;;;21.57;9.93;;;-3.20;99.90;;;;;;4400795;28;660505;-64
2022/11/19 04:01:52;;;;;;;21.17;9.33;;;-3.30;99.90;;;;;;4411796;28;661295;-63
2022/11/19 04:04:40;;;;;;;23.40;10.70;;;-3.20;99.90;;;;;;4411214;28;659853;-63
2022/11/19 04:07:27;;;;;;;24.70;10.77;;;-3.10;99.90;;;;;;4414376;28;660316;-62
2022/11/19 04:10:15;;;;;;;23.50;10.60;;;-3.20;99.90;;;;;;4410505;28;660474;-63
2022/11/19 04:13:04;;;;;;;21.73;10.20;;;-3.20;99.90;;;;;;4391812;28;661387;-63
2022/11/19 04:15:51;;;;;;;21.53;10.13;;;-3.20;99.90;;;;;;4391344;28;660510;-63
2022/11/19 04:18:38;;;;;;;25.73;10.67;;;-3.20;99.90;;;;;;4411711;28;662216;-63
2022/11/19 04:21:25;;;;;;;26.45;11.05;;;-3.20;99.90;;;;;;4396210;28;661636;-64
2022/11/19 04:24:12;;;;;;;25.87;10.23;;;-3.20;99.90;;;;;;4413668;28;661136;-62
2022/11/19 04:27:00;;;;;;;28.07;11.57;;;-3.20;99.90;;;;;;4413153;28;660691;-65
2022/11/19 04:29:48;;;;;;;28.58;12.55;;;-3.30;99.90;;;;;;4417509;28;661218;-62
2022/11/19 04:32:36;;;;;;;29.43;13.03;;;-3.20;99.90;;;;;;4394625;28;661846;-62
2022/11/19 04:35:23;;;;;;;27.77;12.13;;;-3.30;99.90;;;;;;4413342;28;662387;-62
2022/11/19 04:38:10;;;;;;;29.30;13.03;;;-3.20;99.90;;;;;;4405150;28;660544;-64
2022/11/19 04:40:57;;;;;;;27.13;12.75;;;-3.30;99.90;;;;;;4417799;28;660402;-63
2022/11/19 04:43:44;;;;;;;27.87;12.40;;;-3.20;99.90;;;;;;4413405;28;660930;-63
2022/11/19 04:46:33;;;;;;;33.33;14.07;;;-3.30;99.90;;;;;;4391788;28;660957;-62
2022/11/19 04:49:20;;;;;;;30.65;13.18;;;-3.30;99.90;;;;;;4398665;28;660820;-64
2022/11/19 04:52:07;;;;;;;28.30;13.00;;;-3.30;99.90;;;;;;4417396;28;661703;-63
2022/11/19 04:54:54;;;;;;;33.23;13.83;;;-3.20;99.90;;;;;;4413589;28;660690;-62
2022/11/19 04:57:41;;;;;;;26.33;12.27;;;-3.10;99.90;;;;;;4394191;28;660582;-62
2022/11/19 05:00:28;;;;;;;28.13;12.97;;;-3.10;99.90;;;;;;4413435;28;662301;-62
2022/11/19 05:03:17;;;;;;;31.10;12.67;;;-3.10;99.90;;;;;;4394271;28;660780;-64
2022/11/19 05:06:04;;;;;;;27.30;12.47;;;-3.10;99.90;;;;;;4413375;28;660660;-62
2022/11/19 05:08:51;;;;;;;24.70;11.47;;;-3.10;99.90;;;;;;4377445;28;660974;-62
2022/11/19 05:11:38;;;;;;;19.33;8.73;;;-3.10;99.90;;;;;;4412106;28;661695;-63
2022/11/19 05:14:25;;;;;;;19.60;9.37;;;-3.10;99.90;;;;;;4394508;28;659916;-64
2022/11/19 05:17:12;;;;;;;22.33;9.27;;;-3.30;99.90;;;;;;4413359;28;660718;-62
2022/11/19 05:20:01;;;;;;;20.70;8.90;;;-3.30;99.90;;;;;;4407318;28;660283;-64
2022/11/19 05:22:48;;;;;;;22.03;10.03;;;-3.30;99.90;;;;;;4413772;28;660495;-62
2022/11/19 05:25:36;;;;;;;22.30;10.27;;;-3.30;99.90;;;;;;4393685;28;660783;-62
2022/11/19 05:28:23;;;;;;;24.90;11.33;;;-3.30;99.90;;;;;;4412937;28;661861;-63
2022/11/19 05:31:10;;;;;;;29.90;11.40;;;-3.20;99.90;;;;;;4405380;28;660754;-64
2022/11/19 05:33:57;;;;;;;24.88;11.57;;;-3.30;99.90;;;;;;4416052;28;660523;-62
2022/11/19 05:36:46;;;;;;;28.57;12.17;;;-3.20;99.90;;;;;;4412836;28;661069;-63
2022/11/19 05:39:33;;;;;;;28.53;13.10;;;-3.10;99.90;;;;;;4389664;28;662100;-62
2022/11/19 05:42:20;;;;;;;31.60;13.50;;;-3.10;99.90;;;;;;4404624;28;660573;-64
2022/11/19 05:45:08;;;;;;;28.38;12.88;;;-3.10;99.90;;;;;;4416995;28;660439;-63
2022/11/19 05:47:55;;;;;;;25.33;11.87;;;-3.10;99.90;;;;;;4393658;28;660707;-64
2022/11/19 05:50:42;;;;;;;35.57;13.83;;;-3.00;99.90;;;;;;4412534;28;662005;-64
2022/11/19 05:53:31;;;;;;;29.30;12.97;;;-3.10;99.90;;;;;;4410565;28;661638;-64
2022/11/19 05:56:18;;;;;;;29.97;13.70;;;-3.00;99.90;;;;;;4412057;28;661020;-62
2022/11/19 05:59:06;;;;;;;32.73;13.90;;;-3.00;99.90;;;;;;4392831;28;660950;-63
2022/11/19 06:01:53;;;;;;;30.90;13.57;;;-3.00;99.90;;;;;;4416329;28;661513;-63
2022/11/19 06:04:40;;;;;;;31.63;14.47;;;-3.10;99.90;;;;;;4403968;28;660558;-63
2022/11/19 06:07:27;;;;;;;32.13;14.27;;;-3.00;99.90;;;;;;4416266;28;661407;-63
2022/11/19 06:10:16;;;;;;;33.00;14.47;;;-2.90;99.90;;;;;;4412069;28;661189;-62
2022/11/19 06:13:03;;;;;;;29.07;12.57;;;-2.90;99.90;;;;;;4389538;28;661764;-63
2022/11/19 06:15:50;;;;;;;31.20;13.83;;;-3.00;99.90;;;;;;4395881;28;660827;-64
2022/11/19 06:18:37;;;;;;;33.78;13.80;;;-3.00;99.90;;;;;;4415845;28;660590;-63
2022/11/19 06:21:24;;;;;;;31.50;13.93;;;-3.00;99.90;;;;;;4412197;28;660545;-63
2022/11/19 06:24:12;;;;;;;32.17;14.07;;;-3.10;99.90;;;;;;4389313;28;661614;-63
2022/11/19 06:27:00;;;;;;;30.33;13.70;;;-3.10;99.90;;;;;;4411680;28;660527;-62
2022/11/19 06:29:47;;;;;;;29.70;13.65;;;-3.00;99.90;;;;;;4393022;28;661599;-63
2022/11/19 06:32:34;;;;;;;28.57;12.73;;;-3.00;99.90;;;;;;4412004;28;660709;-63
2022/11/19 06:35:21;;;;;;;28.30;12.50;;;-3.10;99.90;;;;;;4390045;28;660685;-63
2022/11/19 06:38:08;;;;;;;28.43;12.27;;;-3.00;99.90;;;;;;4411541;28;661058;-62
2022/11/19 06:40:55;;;;;;;25.73;11.53;;;-3.00;99.90;;;;;;4392454;28;660977;-63
2022/11/19 06:43:44;;;;;;;25.53;11.23;;;-3.00;99.90;;;;;;4411175;28;662050;-63
2022/11/19 06:46:31;;;;;;;26.93;11.93;;;-3.00;99.90;;;;;;4391874;28;661307;-63
2022/11/19 06:49:18;;;;;;;22.87;10.97;;;-2.90;99.90;;;;;;4411409;28;661537;-64
2022/11/19 06:52:05;;;;;;;22.02;10.57;;;-3.00;99.90;;;;;;4392387;28;661721;-64
2022/11/19 06:54:52;;;;;;;23.27;10.57;;;-2.90;99.90;;;;;;4415528;28;661221;-63
2022/11/19 06:57:39;;;;;;;23.27;10.93;;;-2.80;99.90;;;;;;4410862;28;660781;-63
2022/11/19 07:00:28;;;;;;;22.83;10.00;;;-2.80;99.90;;;;;;4468392;28;660779;-62
2022/11/19 07:03:15;;;;;;;21.48;10.15;;;-2.60;99.90;;;;;;4790245;28;537462;-64
2022/11/19 07:06:03;;;;;;;20.40;10.03;;;-2.60;99.90;;;;;;4410767;28;661675;-63
2022/11/19 07:08:50;;;;;;;22.17;10.30;;;-2.60;99.90;;;;;;4391371;28;660582;-65
2022/11/19 07:11:37;;;;;;;22.00;10.00;;;-2.50;99.90;;;;;;4410286;28;662204;-63
2022/11/19 07:14:24;;;;;;;31.67;13.37;;;-2.30;99.90;;;;;;4409862;28;660591;-64
2022/11/19 07:17:13;;;;;;;22.87;10.57;;;-2.10;99.90;;;;;;4391987;28;661144;-63
2022/11/19 07:20:00;;;;;;;24.27;11.13;;;-1.90;99.90;;;;;;4394319;28;661265;-64
2022/11/19 07:22:47;;;;;;;21.20;10.30;;;-1.70;99.90;;;;;;4414998;28;661329;-64
2022/11/19 07:25:34;;;;;;;24.13;11.93;;;-1.60;99.90;;;;;;4411008;28;660843;-63
2022/11/19 07:28:21;;;;;;;26.93;11.77;;;-1.40;99.90;;;;;;4391984;28;661673;-63
2022/11/19 07:31:08;;;;;;;24.40;11.47;;;-1.10;99.90;;;;;;4410858;28;661259;-62
2022/11/19 07:33:57;;;;;;;22.07;11.13;;;-0.80;99.90;;;;;;4391945;28;661058;-63
2022/11/19 07:36:45;;;;;;;22.13;10.23;;;-1.30;99.90;;;;;;4410546;28;661046;-63
2022/11/19 07:39:32;;;;;;;22.33;10.75;;;-1.30;99.90;;;;;;4414668;28;661550;-63
2022/11/19 07:45:24;;;;;;;17.00;9.40;;;-0.90;99.90;;;;;;4388936;28;659951;-63
2022/11/19 07:48:11;;;;;;;16.93;8.63;;;-0.80;99.90;;;;;;4393024;28;659658;-64
2022/11/19 07:50:59;;;;;;;19.92;9.90;;;-0.50;99.90;;;;;;4412925;28;659983;-63
2022/11/19 07:53:46;;;;;;;19.67;9.37;;;-0.70;99.90;;;;;;4388321;28;659607;-63
2022/11/19 07:56:33;;;;;;;18.10;10.13;;;-0.60;99.90;;;;;;4412004;28;660445;-63
2022/11/19 07:59:20;;;;;;;18.70;9.53;;;-0.70;99.90;;;;;;4382635;28;660988;-63
2022/11/19 08:02:10;;;;;;;20.80;9.50;;;-0.90;99.90;;;;;;4415280;28;660850;-63
2022/11/19 08:04:57;;;;;;;21.30;10.37;;;-1.00;99.90;;;;;;4396540;28;660575;-63
2022/11/19 08:07:45;;;;;;;21.88;10.43;;;-1.00;99.90;;;;;;4414156;28;660989;-62
2022/11/19 08:10:32;;;;;;;21.67;10.63;;;-1.60;99.90;;;;;;4388988;28;661953;-63
2022/11/19 08:13:20;;;;;;;24.17;10.53;;;-1.80;99.90;;;;;;4410181;28;660539;-64
2022/11/19 08:16:08;;;;;;;23.42;9.63;;;-2.10;99.90;;;;;;4418127;28;660920;-62
2022/11/19 08:18:54;;;;;;;19.60;9.50;;;-2.20;99.90;;;;;;4396221;28;659825;-63
2022/11/19 08:21:43;;;;;;;17.67;9.17;;;-2.10;99.90;;;;;;4418961;28;660042;-63
2022/11/19 08:24:31;;;;;;;21.80;10.23;;;-2.10;99.90;;;;;;4401655;28;659774;-64
2022/11/19 08:27:19;;;;;;;20.43;9.23;;;-2.10;99.90;;;;;;4413702;28;660904;-63
2022/11/19 08:30:07;;;;;;;18.30;8.70;;;-2.40;99.90;;;;;;4396149;28;659872;-64
2022/11/19 08:32:54;;;;;;;21.93;9.13;;;-2.60;99.90;;;;;;4411588;28;660478;-63
2022/11/19 08:35:41;;;;;;;19.40;9.47;;;-2.60;99.90;;;;;;4396213;28;661511;-62
2022/11/19 08:38:28;;;;;;;21.37;9.57;;;-2.60;99.90;;;;;;4414617;28;659934;-63
2022/11/19 08:44:21;;;;;;;16.50;8.20;;;-2.30;99.90;;;;;;4395777;28;661003;-62
2022/11/19 08:47:08;;;;;;;20.17;9.50;;;-2.40;99.90;;;;;;4414674;28;660969;-63
2022/11/19 08:49:56;;;;;;;19.87;9.13;;;-2.50;99.90;;;;;;4395531;28;660090;-62
2022/11/19 08:52:43;;;;;;;18.17;8.73;;;-2.40;99.90;;;;;;4414689;28;661434;-63
2022/11/19 08:55:31;;;;;;;19.10;8.80;;;-2.30;99.90;;;;;;4395573;28;659886;-64
2022/11/19 08:58:19;;;;;;;19.43;8.97;;;-2.30;99.90;;;;;;4413451;28;660594;-62
2022/11/19 09:01:10;;;;;;;23.03;9.63;;;-2.40;99.90;;;;;;4620723;28;659614;-62
2022/11/19 09:03:57;;;;;;;17.43;8.47;;;-2.30;99.90;;;;;;4638025;28;536934;-63
2022/11/19 09:06:44;;;;;;;22.13;10.10;;;-2.10;99.90;;;;;;4414355;28;659889;-62
2022/11/19 09:09:31;;;;;;;25.07;10.33;;;-1.90;99.90;;;;;;4389433;28;661441;-63
2022/11/19 09:12:18;;;;;;;20.17;8.67;;;-1.80;99.90;;;;;;4413098;28;661632;-63
2022/11/19 09:15:08;;;;;;;20.53;9.67;;;-2.00;99.90;;;;;;4395023;28;659862;-64
2022/11/19 09:17:55;;;;;;;19.10;9.27;;;-2.00;99.90;;;;;;4398085;28;659783;-63
2022/11/19 09:20:42;;;;;;;22.37;10.03;;;-2.00;99.90;;;;;;4418202;28;659858;-63
2022/11/19 09:23:29;;;;;;;18.50;9.73;;;-1.70;99.90;;;;;;4412942;28;660717;-63
2022/11/19 09:26:17;;;;;;;19.97;9.27;;;-1.40;99.90;;;;;;4390922;28;661999;-63
2022/11/19 09:29:04;;;;;;;19.43;9.60;;;-1.40;99.90;;;;;;4414177;28;660023;-63
2022/11/19 09:31:53;;;;;;;22.63;9.50;;;-1.10;99.90;;;;;;4391451;28;659808;-62
2022/11/19 09:34:40;;;;;;;22.30;10.40;;;-0.90;99.90;;;;;;4405566;28;660600;-64
2022/11/19 09:37:30;;;;;;;21.55;8.57;;;-0.90;99.90;;;;;;4416845;28;661601;-62
2022/11/19 09:40:19;;;;;;;20.43;8.50;;;-0.60;99.90;;;;;;4390890;28;660860;-62
2022/11/19 09:43:08;;;;;;;17.23;8.68;;;-0.40;99.90;;;;;;4394298;28;659981;-62
2022/11/19 09:45:59;;;;;;;22.23;10.43;;;-0.30;99.90;;;;;;4393947;28;659651;-62
2022/11/19 09:48:47;;;;;;;23.60;9.77;;;-0.30;99.90;;;;;;4392694;28;661643;-63
2022/11/19 09:51:34;;;;;;;21.02;10.30;;;-0.40;99.90;;;;;;4412622;28;659565;-63
2022/11/19 09:54:21;;;;;;;21.13;8.43;;;-0.20;99.90;;;;;;4391537;28;661513;-63
2022/11/19 09:57:10;;;;;;;22.33;9.83;;;0.00;99.90;;;;;;4411458;28;660329;-63
2022/11/19 10:00:01;;;;;;;21.60;10.33;;;0.10;99.90;;;;;;4374566;28;659141;-63
2022/11/19 10:02:48;;;;;;;24.67;11.07;;;0.70;99.90;;;;;;4373184;28;660696;-63
2022/11/19 10:05:41;;;;;;;20.47;10.33;;;1.70;99.90;;;;;;4386200;28;659728;-64
2022/11/19 10:08:36;;;;;;;20.93;10.33;;;2.20;99.90;;;;;;4372284;28;661080;-63
2022/11/19 10:11:30;;;;;;;22.97;11.80;;;1.30;99.90;;;;;;4372772;28;660068;-63
2022/11/19 10:14:28;;;;;;;20.57;10.57;;;1.60;97.50;;;;;;4348518;28;660775;-63
2022/11/19 10:17:20;;;;;;;23.57;10.93;;;2.80;96.60;;;;;;4348610;28;660129;-65
2022/11/19 10:20:13;;;;;;;18.67;9.07;;;2.80;97.60;;;;;;4367324;28;660946;-64
2022/11/19 10:23:03;;;;;;;24.77;12.63;;;3.80;93.00;;;;;;4354694;28;659290;-64
2022/11/19 10:25:52;;;;;;;23.07;10.90;;;2.10;94.20;;;;;;4377077;28;660265;-65
2022/11/19 10:28:40;;;;;;;29.00;12.97;;;0.30;99.90;;;;;;4396125;28;659900;-63
2022/11/19 10:31:29;;;;;;;26.20;12.20;;;0.20;99.90;;;;;;4373037;28;661230;-63
2022/11/19 10:34:19;;;;;;;22.37;11.00;;;-0.10;99.90;;;;;;4376758;28;660941;-63
2022/11/19 10:37:08;;;;;;;24.20;11.47;;;-0.70;99.90;;;;;;4375479;28;660606;-63
2022/11/19 10:39:58;;;;;;;28.87;12.73;;;-0.80;99.90;;;;;;4372192;28;660965;-64
2022/11/19 10:42:47;;;;;;;25.07;11.60;;;-0.60;99.90;;;;;;4380934;28;661101;-64
2022/11/19 10:45:34;;;;;;;21.10;11.03;;;-0.50;99.90;;;;;;4411255;28;660409;-63
2022/11/19 10:48:22;;;;;;;22.77;11.40;;;-0.60;99.90;;;;;;4391778;28;661130;-63
2022/11/19 10:51:14;;;;;;;21.17;10.30;;;-0.50;99.90;;;;;;4411615;28;660927;-63
2022/11/19 10:54:02;;;;;;;23.37;10.20;;;-0.40;99.90;;;;;;4369856;28;661789;-64
2022/11/19 10:56:50;;;;;;;20.60;10.00;;;-0.50;99.90;;;;;;4411587;28;662087;-63
2022/11/19 10:59:39;;;;;;;32.20;12.80;;;-0.60;99.90;;;;;;4371133;28;662187;-63
2022/11/19 11:02:30;;;;;;;23.50;10.80;;;-0.60;99.90;;;;;;4825111;28;660964;-63
2022/11/19 11:05:18;;;;;;;28.00;12.07;;;-0.60;99.90;;;;;;4370043;28;662153;-64
2022/11/19 11:08:10;;;;;;;25.55;11.32;;;-0.60;99.90;;;;;;4375237;28;660637;-65
2022/11/19 11:10:57;;;;;;;26.50;11.77;;;-0.60;99.90;;;;;;4371306;28;661154;-63
2022/11/19 11:16:50;;;;;;;25.10;12.10;;;-0.80;99.90;;;;;;4352356;28;661724;-64
2022/11/19 11:19:37;;;;;;;23.90;12.03;;;-0.70;99.90;;;;;;4393880;28;661653;-63
2022/11/19 11:22:25;;;;;;;26.73;10.80;;;-1.10;99.90;;;;;;4393917;28;660701;-63
2022/11/19 11:25:18;;;;;;;26.27;12.27;;;-1.30;99.90;;;;;;4370914;28;662049;-63
2022/11/19 11:28:07;;;;;;;21.77;10.30;;;-1.40;99.90;;;;;;4352023;28;661241;-64
2022/11/19 11:30:56;;;;;;;26.90;11.93;;;-1.50;99.90;;;;;;4393623;28;661377;-63
2022/11/19 11:33:53;;;;;;;25.13;11.67;;;-1.10;99.90;;;;;;4370541;28;661891;-63
2022/11/19 11:36:40;;;;;;;26.38;11.98;;;-1.30;99.90;;;;;;4348945;28;661223;-63
2022/11/19 11:39:29;;;;;;;24.43;12.00;;;-1.10;99.90;;;;;;4393512;28;661790;-63
2022/11/19 11:42:17;;;;;;;30.40;12.33;;;-1.10;99.90;;;;;;4374558;28;660482;-64
2022/11/19 11:45:04;;;;;;;24.70;12.18;;;-1.20;99.90;;;;;;4389396;28;661728;-63
2022/11/19 11:47:52;;;;;;;26.13;13.00;;;-0.90;99.90;;;;;;4373978;28;661087;-63
2022/11/19 11:50:40;;;;;;;28.67;13.37;;;-1.20;99.90;;;;;;4387904;28;660662;-65
2022/11/19 11:53:29;;;;;;;25.27;13.03;;;-0.70;99.90;;;;;;4392533;28;661852;-63
2022/11/19 11:56:16;;;;;;;27.73;13.23;;;-0.10;99.90;;;;;;4373886;28;660757;-64
2022/11/19 11:59:23;;;;;;;26.63;12.93;;;-0.20;99.90;;;;;;4393843;28;661160;-64
2022/11/19 12:02:19;;;;;;;32.13;13.50;;;0.20;99.90;;;;;;4352883;28;660511;-64
2022/11/19 12:05:13;;;;;;;23.33;11.87;;;-0.30;99.90;;;;;;4350286;28;660541;-63
2022/11/19 12:08:03;;;;;;;23.30;11.70;;;0.20;99.90;;;;;;4359603;28;661118;-65
2022/11/19 12:10:52;;;;;;;26.33;11.60;;;-0.30;99.90;;;;;;4376761;28;659525;-64
2022/11/19 12:13:57;;;;;;;25.63;12.27;;;-0.50;99.90;;;;;;4393000;28;661179;-65
2022/11/19 12:16:49;;;;;;;24.97;11.83;;;-0.60;99.90;;;;;;4371566;28;661269;-63
2022/11/19 12:19:47;;;;;;;25.03;11.03;;;-0.10;99.90;;;;;;4348871;28;661808;-63
2022/11/19 12:22:41;;;;;;;22.13;11.77;;;2.30;99.90;;;;;;4371270;28;660799;-64
2022/11/19 12:25:31;;;;;;;20.98;11.30;;;4.20;86.30;;;;;;4372613;28;659659;-63
2022/11/19 12:28:28;;;;;;;26.48;12.45;;;5.70;75.50;;;;;;4376837;28;660950;-64
2022/11/19 12:31:22;;;;;;;21.27;11.67;;;5.80;72.00;;;;;;4354071;28;659474;-65
2022/11/19 12:34:20;;;;;;;22.08;12.02;;;7.00;66.80;;;;;;4372884;28;659344;-64
2022/11/19 12:37:16;;;;;;;19.70;11.17;;;8.00;67.20;;;;;;4347855;28;660940;-64
2022/11/19 12:40:15;;;;;;;22.63;11.60;;;8.70;59.00;;;;;;4372626;28;659785;-63
2022/11/19 12:43:06;;;;;;;22.83;12.03;;;8.50;60.10;;;;;;4358448;28;661160;-63
2022/11/19 12:45:57;;;;;;;22.23;12.33;;;7.70;57.60;;;;;;4392050;28;660178;-64
2022/11/19 12:48:50;;;;;;;20.63;11.93;;;7.20;60.40;;;;;;4392073;28;660380;-63
2022/11/19 12:51:42;;;;;;;19.47;11.17;;;6.80;59.60;;;;;;4392009;28;660787;-64
2022/11/19 12:54:40;;;;;;;23.33;12.90;;;6.20;58.60;;;;;;4388691;28;659778;-65
2022/11/19 12:57:40;;;;;;;21.87;11.97;;;5.00;60.90;;;;;;4368785;28;659959;-63
2022/11/19 13:00:28;;;;;;;23.23;11.63;;;4.00;62.90;;;;;;4427598;28;660492;-63
2022/11/19 13:03:17;;;;;;;23.87;11.73;;;2.50;67.70;;;;;;4789520;28;536002;-64
2022/11/19 13:06:07;;;;;;;23.60;11.90;;;1.70;72.50;;;;;;4409581;28;659718;-64
2022/11/19 13:08:55;;;;;;;21.73;11.03;;;1.40;75.60;;;;;;4414428;28;660058;-63
2022/11/19 13:11:43;;;;;;;23.83;11.20;;;2.00;73.20;;;;;;4391861;28;660626;-62
2022/11/19 13:14:35;;;;;;;23.70;11.70;;;1.50;76.10;;;;;;4402493;28;659696;-64
2022/11/19 13:17:24;;;;;;;21.13;10.77;;;0.40;80.70;;;;;;4391859;28;660655;-62
2022/11/19 13:20:14;;;;;;;23.40;10.43;;;0.30;89.20;;;;;;4379125;28;659758;-62
2022/11/19 13:23:03;;;;;;;23.58;11.65;;;0.10;89.10;;;;;;4379185;28;659774;-63
2022/11/19 13:25:55;;;;;;;23.60;11.43;;;-0.20;91.20;;;;;;4388707;28;659489;-64
2022/11/19 13:28:44;;;;;;;25.20;11.73;;;-0.90;92.00;;;;;;4376624;28;661258;-62
2022/11/19 13:31:34;;;;;;;26.45;11.70;;;-1.00;96.40;;;;;;4374315;28;661824;-63
2022/11/19 13:34:22;;;;;;;27.23;12.00;;;-0.80;95.80;;;;;;4376098;28;661443;-62
2022/11/19 13:37:13;;;;;;;24.30;11.30;;;-0.70;98.00;;;;;;4396455;28;661518;-63
2022/11/19 13:40:03;;;;;;;25.40;12.63;;;-1.00;98.80;;;;;;4359711;28;660920;-63
2022/11/19 13:46:04;;;;;;;28.17;11.97;;;-1.40;98.40;;;;;;4382831;28;660759;-63
2022/11/19 13:48:55;;;;;;;30.87;13.67;;;-1.60;99.90;;;;;;4387868;28;660924;-64
2022/11/19 13:51:44;;;;;;;25.93;11.73;;;-1.70;99.90;;;;;;4390944;28;661632;-62
2022/11/19 13:54:33;;;;;;;25.63;12.03;;;-1.70;99.90;;;;;;4391459;28;661663;-62
2022/11/19 13:57:26;;;;;;;25.07;11.73;;;-1.40;99.90;;;;;;4390202;28;660514;-63
2022/11/19 14:00:21;;;;;;;29.20;12.67;;;-1.60;99.90;;;;;;4372115;28;661612;-62
2022/11/19 14:03:20;;;;;;;24.37;11.43;;;-1.70;99.90;;;;;;4372029;28;661222;-62
2022/11/19 14:06:18;;;;;;;27.83;12.40;;;-1.50;99.90;;;;;;4348996;28;660799;-63
2022/11/19 14:09:12;;;;;;;29.57;13.27;;;-1.40;99.90;;;;;;4352978;28;661185;-64
2022/11/19 14:12:25;;;;;;;30.27;13.68;;;-1.30;99.90;;;;;;4368360;28;661381;-62
2022/11/19 14:28:43;;;;;;;24.93;11.93;;;-1.80;99.90;;;;;;4348430;28;662879;-62
2022/11/19 14:31:30;;;;;;;27.23;12.10;;;-1.70;99.90;;;;;;4325344;28;660608;-63
2022/11/19 14:34:25;;;;;;;30.70;14.40;;;-1.60;99.90;;;;;;4394325;28;662196;-62
2022/11/19 14:37:16;;;;;;;28.60;12.97;;;-1.70;99.90;;;;;;4348447;28;661678;-63
2022/11/19 14:40:10;;;;;;;29.70;14.17;;;-1.60;99.90;;;;;;4371108;28;661705;-63
2022/11/19 14:46:29;;;;;;;28.60;13.37;;;-1.60;99.90;;;;;;4386730;28;661376;-62
2022/11/19 14:49:29;;;;;;;26.33;13.37;;;-1.70;99.90;;;;;;4392530;28;660414;-62
2022/11/19 14:52:20;;;;;;;29.67;14.07;;;-1.70;99.90;;;;;;4392910;28;661642;-63
2022/11/19 14:55:19;;;;;;;26.23;12.50;;;-1.70;99.90;;;;;;4388612;28;662277;-63